Time;durP1;ratioP1;P1;durP2;ratioP2;P2;SDS_P1;SDS_P2;PMS_P1;PMS_P2;Temp;Humidity;BMP_temperature;BMP_pressure;BME280_temperature;BME280_humidity;BME280_pressure;Samples;Min_cycle;Max_cycle;Signal;HPM_P1;HPM_P2
2022/08/25 00:01:31;;;;;;;14.60;6.42;;;;;;;18.22;71.26;100567.37;1720486;83;21102;-68
2022/08/25 00:03:59;;;;;;;24.37;6.92;;;;;;;18.18;72.01;100564.50;1720752;83;21055;-68
2022/08/25 00:06:25;;;;;;;26.05;7.50;;;;;;;18.15;71.74;100567.37;1720519;83;21067;-67
2022/08/25 00:08:52;;;;;;;23.22;6.92;;;;;;;18.13;71.68;100562.61;1720586;83;21096;-67
2022/08/25 00:11:21;;;;;;;20.70;7.40;;;;;;;18.08;71.86;100566.00;1720447;83;21047;-67
2022/08/25 00:13:53;;;;;;;18.92;7.05;;;;;;;18.03;72.08;100564.10;1720591;83;21556;-68
2022/08/25 00:16:20;;;;;;;19.40;6.92;;;;;;;18.00;72.25;100564.30;1720835;83;21034;-68
2022/08/25 00:18:52;;;;;;;23.40;7.40;;;;;;;17.98;72.64;100566.20;1720505;83;21214;-68
2022/08/25 00:21:18;;;;;;;17.60;6.80;;;;;;;17.95;72.95;100568.58;1720203;83;21063;-68
2022/08/25 00:23:45;;;;;;;15.53;7.15;;;;;;;17.93;73.17;100565.63;1720629;82;21515;-67
2022/08/25 00:26:12;;;;;;;20.15;7.35;;;;;;;17.84;73.46;100552.86;1720926;83;21035;-68
2022/08/25 00:28:38;;;;;;;18.62;7.92;;;;;;;17.86;73.34;100563.80;1720367;83;21031;-66
2022/08/25 00:31:06;;;;;;;25.82;7.95;;;;;;;17.84;73.66;100563.04;1720442;83;21355;-68
2022/08/25 00:33:32;;;;;;;26.27;7.70;;;;;;;17.81;74.18;100562.75;1720233;83;21043;-68
2022/08/25 00:35:59;;;;;;;19.32;7.70;;;;;;;17.79;74.31;100563.77;1720632;83;21042;-67
2022/08/25 00:38:26;;;;;;;19.55;7.65;;;;;;;17.78;74.58;100568.25;1720434;83;21137;-68
2022/08/25 00:41:04;;;;;;;25.23;7.83;;;;;;;17.75;74.64;100559.56;1720544;83;21063;-67
2022/08/25 00:43:42;;;;;;;18.82;6.87;;;;;;;17.70;74.93;100566.50;1720765;82;21963;-68
2022/08/25 00:46:10;;;;;;;18.87;6.25;;;;;;;17.65;75.16;100565.92;1720593;83;21047;-69
2022/08/25 00:48:37;;;;;;;18.48;6.50;;;;;;;17.64;75.56;100565.52;1720636;83;21067;-67
2022/08/25 00:51:04;;;;;;;16.45;6.28;;;;;;;17.60;75.91;100567.53;1720597;83;21079;-68
2022/08/25 00:53:31;;;;;;;15.78;5.65;;;;;;;17.54;76.31;100565.22;1717533;82;22270;-68
2022/08/25 00:55:58;;;;;;;20.48;6.22;;;;;;;17.54;76.86;100567.03;1712827;83;21113;-66
2022/08/25 00:58:27;;;;;;;17.75;5.95;;;;;;;17.51;77.01;100560.56;1713046;82;21072;-67
2022/08/25 01:00:55;;;;;;;15.20;5.80;;;;;;;17.49;77.22;100567.78;1712872;82;21041;-66
2022/08/25 01:03:23;;;;;;;10.30;5.53;;;;;;;17.47;77.42;100561.20;1712848;83;21113;-68
2022/08/25 01:05:50;;;;;;;15.55;5.83;;;;;;;17.49;77.45;100564.64;1712993;83;21258;-68
2022/08/25 01:08:20;;;;;;;14.87;5.25;;;;;;;17.46;77.73;100562.17;1702747;83;22134;-68
2022/08/25 01:10:46;;;;;;;14.80;5.85;;;;;;;17.44;77.92;100566.73;1712764;82;21073;-68
2022/08/25 01:13:27;;;;;;;16.70;5.30;;;;;;;17.43;77.98;100562.81;1712914;83;21102;-69
2022/08/25 01:15:55;;;;;;;13.75;6.08;;;;;;;17.39;78.01;100561.67;1707241;83;21077;-67
2022/08/25 01:18:22;;;;;;;16.07;6.70;;;;;;;17.43;78.01;100563.66;1713112;83;21058;-68
2022/08/25 01:20:52;;;;;;;18.00;6.10;;;;;;;17.39;78.05;100560.34;1712941;83;21186;-67
2022/08/25 01:23:18;;;;;;;18.00;6.42;;;;;;;17.39;78.01;100559.45;1712666;83;21035;-68
2022/08/25 01:25:59;;;;;;;13.53;6.65;;;;;;;17.37;78.18;100563.56;1712815;83;21634;-69
2022/08/25 01:28:26;;;;;;;13.25;5.62;;;;;;;17.37;78.64;100562.71;1713487;82;21062;-67
2022/08/25 01:30:52;;;;;;;12.82;6.08;;;;;;;17.33;78.88;100556.69;1712823;82;21677;-68
2022/08/25 01:33:19;;;;;;;11.50;5.78;;;;;;;17.31;78.98;100559.91;1713057;83;21657;-67
2022/08/25 01:35:46;;;;;;;18.90;6.42;;;;;;;17.25;79.13;100556.27;1712718;83;21594;-68
2022/08/25 01:38:12;;;;;;;16.27;6.10;;;;;;;17.23;79.44;100555.53;1712936;82;21097;-68
2022/08/25 01:40:39;;;;;;;15.23;5.80;;;;;;;17.21;79.80;100553.42;1712948;83;21108;-68
2022/08/25 01:43:11;;;;;;;12.75;5.58;;;;;;;17.19;80.23;100556.64;1713055;82;21049;-67
2022/08/25 01:45:41;;;;;;;12.75;6.30;;;;;;;17.17;80.51;100561.20;1713270;82;22257;-68
2022/08/25 01:48:08;;;;;;;17.85;6.42;;;;;;;17.12;80.77;100555.28;1712963;82;21014;-68
2022/08/25 01:50:35;;;;;;;15.65;5.87;;;;;;;17.10;81.14;100557.17;1712868;83;22075;-66
2022/08/25 01:53:14;;;;;;;13.83;6.10;;;;;;;17.07;81.24;100562.20;1712154;83;21093;-68
2022/08/25 01:56:13;;;;;;;12.55;5.83;;;;;;;17.04;81.73;100564.16;1696788;84;21555;-67
2022/08/25 01:58:14;;;;;;;12.80;6.37;;;;;;;17.03;82.48;100565.13;1682190;84;21394;-68
2022/08/25 02:00:47;;;;;;;16.70;6.28;;;;;;;17.02;82.05;100562.06;1705020;83;21053;-67
2022/08/25 02:03:13;;;;;;;11.08;5.80;;;;;;;16.99;81.99;100561.28;1725705;83;21234;-68
2022/08/25 02:05:41;;;;;;;16.57;6.15;;;;;;;16.96;82.12;100560.14;1725747;83;21015;-68
2022/08/25 02:08:08;;;;;;;13.20;6.00;;;;;;;16.93;82.25;100562.11;1725965;83;21199;-66
2022/08/25 02:10:34;;;;;;;13.25;6.05;;;;;;;16.89;82.29;100558.78;1725705;83;21509;-67
2022/08/25 02:13:01;;;;;;;11.25;5.62;;;;;;;16.86;82.54;100562.07;1725677;83;21166;-67
2022/08/25 02:15:27;;;;;;;12.88;5.87;;;;;;;16.82;82.88;100558.74;1725764;83;21025;-68
2022/08/25 02:17:55;;;;;;;16.87;5.95;;;;;;;16.79;83.17;100566.88;1725857;83;22144;-67
2022/08/25 02:20:22;;;;;;;25.12;6.55;;;;;;;16.77;83.49;100566.06;1725788;83;21069;-67
2022/08/25 02:22:52;;;;;;;13.35;6.67;;;;;;;16.74;83.66;100564.44;1725782;82;21073;-68
2022/08/25 02:25:19;;;;;;;16.65;8.15;;;;;;;16.72;83.79;100562.81;1726037;83;21053;-67
2022/08/25 02:27:45;;;;;;;15.70;8.03;;;;;;;16.69;84.05;100567.83;1725677;82;21021;-68
2022/08/25 02:30:15;;;;;;;19.00;8.93;;;;;;;16.65;84.35;100556.97;1726024;82;21159;-67
2022/08/25 02:32:42;;;;;;;10.75;5.37;;;;;;;16.64;84.57;100558.41;1726087;83;21064;-68
2022/08/25 02:35:08;;;;;;;15.00;6.70;;;;;;;16.63;85.01;100561.98;1725848;83;21106;-68
2022/08/25 02:37:36;;;;;;;12.70;7.03;;;;;;;16.60;84.86;100568.81;1725599;83;21029;-67
2022/08/25 02:40:03;;;;;;;18.25;7.05;;;;;;;16.58;84.89;100563.09;1725532;82;21140;-68
2022/08/25 02:42:30;;;;;;;15.80;6.50;;;;;;;16.56;84.90;100569.00;1725405;83;21659;-67
2022/08/25 02:44:56;;;;;;;16.80;5.97;;;;;;;16.55;85.07;100564.61;1725676;83;21084;-67
2022/08/25 02:47:23;;;;;;;14.53;6.25;;;;;;;16.56;85.27;100559.69;1725882;83;21787;-68
2022/08/25 02:49:50;;;;;;;14.55;6.78;;;;;;;16.57;84.98;100565.86;1725836;83;21107;-67
2022/08/25 02:52:16;;;;;;;15.32;7.72;;;;;;;16.54;84.95;100564.23;1726008;83;21052;-67
2022/08/25 02:54:43;;;;;;;17.87;6.95;;;;;;;16.53;85.01;100566.48;1718074;82;21072;-68
2022/08/25 02:57:11;;;;;;;21.73;6.87;;;;;;;16.50;85.21;100558.69;1713037;83;21031;-67
2022/08/25 02:59:38;;;;;;;23.10;6.83;;;;;;;16.51;85.48;100557.73;1713066;82;21075;-67
2022/08/25 03:02:04;;;;;;;18.55;6.42;;;;;;;16.51;85.44;100560.39;1712860;82;21129;-69
2022/08/25 03:04:31;;;;;;;17.00;6.53;;;;;;;16.51;85.71;100560.39;1713129;83;21097;-66
2022/08/25 03:06:58;;;;;;;21.52;6.22;;;;;;;16.52;85.69;100561.27;1712918;83;21488;-68
2022/08/25 03:09:26;;;;;;;11.63;6.08;;;;;;;16.50;85.76;100565.34;1678372;85;21056;-68
2022/08/25 03:11:52;;;;;;;15.38;6.62;;;;;;;16.49;86.42;100567.59;1713016;83;21658;-68
2022/08/25 03:14:19;;;;;;;18.27;7.53;;;;;;;16.51;85.99;100568.37;1678289;85;21525;-70
2022/08/25 03:16:45;;;;;;;21.27;7.62;;;;;;;16.51;85.95;100563.05;1713127;83;21078;-67
2022/08/25 03:19:11;;;;;;;23.47;8.65;;;;;;;16.51;86.29;100569.70;1712958;82;21069;-68
2022/08/25 03:21:38;;;;;;;23.18;8.25;;;;;;;16.50;86.59;100570.66;1678563;85;21060;-67
2022/08/25 03:24:05;;;;;;;16.67;7.62;;;;;;;16.52;86.18;100571.43;1713115;83;21095;-68
2022/08/25 03:29:17;;;;;;;18.52;7.75;;;;;;;16.73;85.85;100569.38;1713011;83;21104;-67
2022/08/25 03:31:44;;;;;;;21.27;7.83;;;;;;;16.97;85.14;100565.84;1712684;82;21093;-69
2022/08/25 03:34:15;;;;;;;19.02;7.78;;;;;;;17.15;83.97;100563.08;1678312;85;21100;-68
2022/08/25 03:36:43;;;;;;;17.57;7.35;;;;;;;17.36;83.06;100562.31;1713177;83;21211;-67
2022/08/25 03:39:10;;;;;;;19.98;7.70;;;;;;;17.58;81.96;100557.44;1678275;85;21612;-67
2022/08/25 03:41:37;;;;;;;27.95;7.67;;;;;;;17.80;80.79;100555.66;1712782;83;21483;-68
2022/08/25 03:44:04;;;;;;;20.92;7.10;;;;;;;18.03;79.50;100558.77;1713418;83;21027;-67
2022/08/25 03:46:42;;;;;;;20.90;7.53;;;;;;;18.29;78.46;100552.30;1713043;82;21037;-68
2022/08/25 03:49:12;;;;;;;16.35;7.10;;;;;;;18.56;76.96;100563.05;1712822;83;21224;-68
2022/08/25 03:51:45;;;;;;;16.97;7.40;;;;;;;18.85;75.65;100558.55;1712790;82;21022;-68
2022/08/25 03:54:14;;;;;;;16.40;7.00;;;;;;;19.15;74.04;100562.36;1714991;82;21105;-69
2022/08/25 03:56:41;;;;;;;12.47;7.10;;;;;;;19.48;72.97;100567.25;1720486;83;20996;-68
2022/08/25 03:59:08;;;;;;;17.32;7.62;;;;;;;19.84;71.10;100573.77;1720884;83;21051;-69
2022/08/25 04:01:40;;;;;;;18.87;7.35;;;;;;;20.12;68.96;100567.36;1720395;83;22053;-66
2022/08/25 04:04:07;;;;;;;20.20;6.55;;;;;;;20.43;67.69;100565.21;1720464;83;21094;-69
2022/08/25 04:06:34;;;;;;;16.25;6.67;;;;;;;20.77;65.76;100561.94;1720794;83;21102;-69
2022/08/25 04:09:01;;;;;;;13.55;6.17;;;;;;;21.06;64.28;100562.00;1720715;83;20983;-68
2022/08/25 04:11:27;;;;;;;12.35;6.50;;;;;;;21.31;63.30;100561.02;1720688;83;21027;-69
2022/08/25 04:13:56;;;;;;;15.43;7.33;;;;;;;21.65;62.19;100553.61;1720748;83;21209;-69
2022/08/25 04:16:25;;;;;;;15.98;6.95;;;;;;;22.00;60.55;100558.45;1720706;83;21714;-69
2022/08/25 04:18:54;;;;;;;14.63;6.67;;;;;;;22.30;59.36;100552.16;1721082;83;21055;-68
2022/08/25 04:21:20;;;;;;;13.48;7.30;;;;;;;22.58;58.25;100545.43;1721018;83;21082;-68
2022/08/25 04:23:47;;;;;;;14.38;6.75;;;;;;;22.90;56.91;100556.73;1721118;83;21106;-67
2022/08/25 04:26:31;;;;;;;15.25;6.78;;;;;;;23.14;56.05;100551.18;1720698;83;21298;-69
2022/08/25 04:28:58;;;;;;;12.75;6.60;;;;;;;23.37;54.85;100543.38;1720853;83;21080;-68
2022/08/25 04:31:25;;;;;;;14.55;6.33;;;;;;;23.67;54.50;100549.83;1720792;83;21095;-67
2022/08/25 04:33:52;;;;;;;12.82;6.87;;;;;;;23.92;53.20;100537.00;1720485;83;21027;-69
2022/08/25 04:36:20;;;;;;;12.35;5.62;;;;;;;24.12;52.12;100532.59;1720582;83;21063;-68
2022/08/25 04:38:48;;;;;;;18.67;6.05;;;;;;;24.32;51.16;100533.03;1720636;83;21740;-69
2022/08/25 04:41:18;;;;;;;10.38;5.87;;;;;;;24.58;50.24;100534.77;1720440;83;21112;-69
2022/08/25 04:43:45;;;;;;;8.48;5.47;;;;;;;24.73;49.83;100531.17;1721035;83;21059;-70
2022/08/25 04:46:15;;;;;;;9.45;5.80;;;;;;;25.03;49.49;100528.91;1720806;83;21005;-70
2022/08/25 04:48:42;;;;;;;18.45;6.45;;;;;;;25.32;47.25;100525.39;1720914;83;21075;-69
2022/08/25 04:51:15;;;;;;;14.58;6.08;;;;;;;25.51;47.49;100516.42;1720636;83;22217;-69
2022/08/25 04:53:42;;;;;;;12.18;5.97;;;;;;;25.70;46.77;100523.66;1711204;83;21068;-69
2022/08/25 04:56:11;;;;;;;10.48;5.42;;;;;;;25.85;45.88;100513.23;1711243;82;21082;-69
2022/08/25 04:58:39;;;;;;;12.37;5.92;;;;;;;26.04;45.49;100505.09;1713076;83;21065;-67
2022/08/25 05:01:11;;;;;;;11.18;6.25;;;;;;;26.23;44.24;100514.98;1713018;82;21343;-69
2022/08/25 05:03:38;;;;;;;12.20;5.83;;;;;;;26.27;42.71;100511.00;1712923;82;21140;-69
2022/08/25 05:06:05;;;;;;;10.30;5.85;;;;;;;26.29;43.61;100512.18;1712882;83;21045;-69
2022/08/25 05:08:31;;;;;;;14.25;5.87;;;;;;;26.45;42.80;100508.33;1712824;83;21081;-69
2022/08/25 05:10:58;;;;;;;19.15;6.37;;;;;;;26.65;42.87;100510.96;1712682;83;21039;-68
2022/08/25 05:13:25;;;;;;;14.73;6.28;;;;;;;26.93;42.30;100509.90;1713026;83;21054;-69
2022/08/25 05:15:58;;;;;;;11.10;6.15;;;;;;;27.13;41.79;100509.77;1713095;83;21697;-69
2022/08/25 05:18:27;;;;;;;11.55;5.90;;;;;;;27.31;41.25;100510.63;1713226;83;21057;-70
2022/08/25 05:20:56;;;;;;;8.60;5.22;;;;;;;27.58;40.71;100509.67;1712943;83;21038;-69
2022/08/25 05:23:23;;;;;;;12.60;5.83;;;;;;;27.77;40.10;100503.20;1713366;83;21037;-69
2022/08/25 05:25:51;;;;;;;15.35;6.20;;;;;;;28.02;39.83;100502.00;1713072;82;21713;-68
2022/08/25 05:28:19;;;;;;;16.30;6.42;;;;;;;28.30;38.91;100501.78;1678489;85;21963;-70
2022/08/25 05:30:47;;;;;;;15.78;6.37;;;;;;;28.59;38.58;100499.55;1712925;83;21122;-68
2022/08/25 05:33:15;;;;;;;12.05;6.50;;;;;;;28.87;36.92;100506.05;1713034;83;21042;-67
2022/08/25 05:35:42;;;;;;;13.30;5.90;;;;;;;28.94;37.15;100497.63;1713040;83;21079;-71
2022/08/25 05:38:09;;;;;;;10.55;6.30;;;;;;;29.09;37.04;100496.47;1713064;83;21085;-69
2022/08/25 05:40:36;;;;;;;11.18;6.25;;;;;;;29.36;36.53;100500.72;1712903;83;21131;-69
2022/08/25 05:43:02;;;;;;;14.83;6.22;;;;;;;29.53;35.96;100497.99;1713081;83;21046;-71
2022/08/25 05:45:30;;;;;;;19.40;6.25;;;;;;;29.67;35.87;100497.28;1713143;83;21025;-69
2022/08/25 05:47:57;;;;;;;13.58;6.50;;;;;;;29.81;36.19;100492.53;1713100;83;21033;-70
2022/08/25 05:50:23;;;;;;;11.93;6.15;;;;;;;30.06;34.77;100502.81;1713399;83;21657;-69
2022/08/25 05:52:50;;;;;;;13.10;5.85;;;;;;;30.08;35.30;100495.86;1712980;83;21523;-69
2022/08/25 05:55:16;;;;;;;13.25;6.10;;;;;;;30.31;35.14;100495.45;1716095;82;21122;-70
2022/08/25 05:57:42;;;;;;;14.15;5.85;;;;;;;30.59;34.44;100500.41;1720667;83;21642;-69
2022/08/25 06:00:10;;;;;;;9.95;5.80;;;;;;;30.81;33.59;100493.85;1720589;83;21634;-69
2022/08/25 06:02:42;;;;;;;11.10;5.58;;;;;;;30.91;33.52;100502.64;1720564;83;21559;-70
2022/08/25 06:05:16;;;;;;;12.85;6.05;;;;;;;30.88;33.74;100496.21;1720554;83;21136;-70
2022/08/25 06:07:45;;;;;;;16.50;5.97;;;;;;;30.90;33.17;100496.88;1720796;83;21450;-70
2022/08/25 06:10:12;;;;;;;7.72;5.35;;;;;;;30.96;32.94;100501.58;1720713;83;21613;-69
2022/08/25 06:12:43;;;;;;;9.75;5.45;;;;;;;30.91;33.10;100501.28;1720683;83;21105;-70
2022/08/25 06:15:13;;;;;;;14.83;6.20;;;;;;;30.86;33.63;100500.98;1720752;83;21084;-69
2022/08/25 06:17:41;;;;;;;;;;;;;;;31.15;33.11;100501.11;1723321;83;21044;-69
2022/08/25 06:20:15;;;;;;;15.88;5.92;;;;;;;31.42;32.94;100502.94;1720663;83;20454;-69
2022/08/25 06:22:42;;;;;;;12.18;5.67;;;;;;;31.49;32.49;100506.61;1720466;83;21055;-71
2022/08/25 06:25:11;;;;;;;10.43;5.83;;;;;;;31.52;32.47;100498.09;1720874;83;21650;-69
2022/08/25 06:27:39;;;;;;;10.38;5.60;;;;;;;31.70;32.31;100496.39;1720598;83;21098;-71
2022/08/25 06:30:08;;;;;;;16.97;5.60;;;;;;;31.75;32.07;100498.56;1720399;83;21541;-71
2022/08/25 06:32:38;;;;;;;20.52;5.75;;;;;;;31.94;31.60;100489.83;1720766;83;21015;-72
2022/08/25 06:35:08;;;;;;;18.20;5.43;;;;;;;31.94;31.60;100489.83;1721239;83;21043;-70
2022/08/25 06:37:35;;;;;;;10.78;5.25;;;;;;;31.95;31.76;100497.47;1720657;83;21011;-70
2022/08/25 06:40:02;;;;;;;16.00;5.22;;;;;;;31.98;31.34;100502.07;1720941;83;21032;-69
2022/08/25 06:42:29;;;;;;;15.35;5.65;;;;;;;32.02;31.60;100501.16;1720696;83;21718;-68
2022/08/25 06:44:56;;;;;;;21.23;5.58;;;;;;;32.26;31.64;100506.84;1717471;83;21136;-69
2022/08/25 06:47:22;;;;;;;15.18;5.45;;;;;;;32.57;31.16;100502.53;1691853;84;21372;-68
2022/08/25 06:49:49;;;;;;;15.83;6.08;;;;;;;32.94;30.93;100502.52;1691982;84;21100;-70
2022/08/25 06:52:15;;;;;;;16.10;5.70;;;;;;;33.40;30.53;100498.05;1691718;84;21103;-70
2022/08/25 06:54:46;;;;;;;17.42;5.42;;;;;;;33.79;29.27;100499.42;1712768;82;21138;-71
2022/08/25 06:57:12;;;;;;;9.85;5.42;;;;;;;33.92;29.56;100494.05;1712903;83;21067;-68
2022/08/25 06:59:39;;;;;;;10.32;5.30;;;;;;;34.21;28.97;100503.05;1712809;82;21131;-70
2022/08/25 07:02:06;;;;;;;16.40;6.08;;;;;;;34.33;28.57;100505.55;1712982;83;21102;-71
2022/08/25 07:04:33;;;;;;;17.05;5.75;;;;;;;34.38;28.39;100496.20;1712275;83;21091;-70
2022/08/25 07:07:00;;;;;;;19.52;6.17;;;;;;;34.55;27.81;100501.30;1712718;83;21188;-71
2022/08/25 07:09:27;;;;;;;11.93;5.60;;;;;;;34.53;27.83;100494.66;1713073;82;20993;-70
2022/08/25 07:11:55;;;;;;;12.60;5.20;;;;;;;34.57;27.99;100497.31;1713095;83;21110;-71
2022/08/25 07:14:22;;;;;;;14.87;5.70;;;;;;;34.76;28.13;100492.97;1713246;83;21062;-71
2022/08/25 07:16:50;;;;;;;15.78;5.67;;;;;;;35.14;27.68;100495.19;1713049;83;21062;-70
2022/08/25 07:19:19;;;;;;;12.28;5.17;;;;;;;35.49;26.53;100493.08;1713196;82;21513;-70
2022/08/25 07:21:47;;;;;;;11.00;4.95;;;;;;;35.32;26.84;100488.23;1712764;82;21110;-70
2022/08/25 07:24:14;;;;;;;12.33;5.10;;;;;;;35.43;27.09;100482.13;1684921;83;21040;-71
2022/08/25 07:26:42;;;;;;;11.22;4.78;;;;;;;35.60;26.81;100484.75;1712777;83;21036;-70
2022/08/25 07:29:13;;;;;;;14.75;5.00;;;;;;;35.98;26.23;100487.33;1713292;83;21036;-69
2022/08/25 07:31:39;;;;;;;12.28;5.03;;;;;;;36.20;25.51;100478.34;1712693;82;21909;-70
2022/08/25 07:36:53;;;;;;;14.33;5.47;;;;;;;36.20;25.44;100475.60;1712779;83;21056;-69
2022/08/25 07:39:20;;;;;;;13.40;4.80;;;;;;;36.39;25.45;100476.03;1712797;83;21008;-68
2022/08/25 07:41:47;;;;;;;9.85;4.70;;;;;;;36.50;25.48;100475.34;1712713;83;21036;-69
2022/08/25 07:44:13;;;;;;;8.58;4.92;;;;;;;36.62;25.02;100466.45;1712889;83;21843;-70
2022/08/25 07:46:39;;;;;;;12.37;5.00;;;;;;;36.55;25.13;100461.80;1713150;82;21461;-71
2022/08/25 07:49:06;;;;;;;11.15;5.25;;;;;;;36.69;25.06;100461.77;1712944;82;21024;-70
2022/08/25 07:51:34;;;;;;;10.58;4.60;;;;;;;36.67;24.94;100458.39;1712862;83;21555;-69
2022/08/25 07:54:00;;;;;;;12.30;4.72;;;;;;;36.47;25.06;100456.59;1713142;83;21538;-70
2022/08/25 07:56:27;;;;;;;13.22;5.37;;;;;;;36.39;25.19;100455.46;1720579;82;21040;-69
2022/08/25 07:58:54;;;;;;;14.60;4.90;;;;;;;36.52;25.24;100451.28;1725579;83;21010;-71
2022/08/25 08:01:21;;;;;;;13.65;5.08;;;;;;;36.71;24.88;100454.16;1725601;82;21088;-70
2022/08/25 08:03:49;;;;;;;15.25;5.10;;;;;;;36.85;24.45;100448.05;1725438;83;21108;-70
2022/08/25 08:06:17;;;;;;;13.88;4.53;;;;;;;36.85;24.89;100450.25;1725402;83;21036;-69
2022/08/25 08:10:24;;;;;;;13.30;4.87;;;;;;;37.10;24.12;100433.00;1882057;75;22553;-69
2022/08/25 08:12:52;;;;;;;12.55;4.20;;;;;;;37.16;24.48;100434.86;1858269;77;21033;-71
2022/08/25 08:15:19;;;;;;;8.50;4.05;;;;;;;37.46;24.13;100431.42;1858143;77;21215;-70
2022/08/25 08:17:45;;;;;;;10.72;4.50;;;;;;;37.62;23.90;100426.73;1858702;77;20949;-69
2022/08/25 08:20:12;;;;;;;12.40;5.03;;;;;;;37.73;23.93;100424.60;1858319;77;20980;-71
2022/08/25 08:22:41;;;;;;;10.23;3.87;;;;;;;37.88;23.70;100424.75;1858525;77;21044;-72
2022/08/25 08:25:10;;;;;;;9.03;4.00;;;;;;;37.86;22.51;100422.76;1858545;77;20993;-69
2022/08/25 08:27:36;;;;;;;13.78;4.78;;;;;;;37.74;22.68;100415.28;1858660;77;21024;-69
2022/08/25 08:30:05;;;;;;;15.63;4.90;;;;;;;37.72;22.72;100414.66;1857860;77;22210;-70
2022/08/25 08:32:31;;;;;;;14.45;4.80;;;;;;;37.68;23.29;100413.44;1856919;77;21073;-70
2022/08/25 08:34:58;;;;;;;12.10;4.03;;;;;;;37.73;22.67;100409.48;1856879;77;21081;-71
2022/08/25 08:37:24;;;;;;;11.78;4.37;;;;;;;37.57;22.88;100412.30;1856926;77;21088;-70
2022/08/25 08:39:51;;;;;;;12.43;3.52;;;;;;;37.50;23.30;100406.52;1856917;77;21722;-69
2022/08/25 08:43:05;;;;;;;8.18;3.80;;;;;;;37.82;22.65;100411.38;1856637;77;21582;-69
2022/08/25 08:45:42;;;;;;;11.83;3.83;;;;;;;38.14;21.85;100404.34;1783380;80;21118;-69
2022/08/25 08:48:37;;;;;;;11.78;4.10;;;;;;;38.13;21.64;100407.64;1783529;80;22135;-69
2022/08/25 08:51:15;;;;;;;16.32;4.12;;;;;;;37.92;22.14;100403.44;1832029;77;21598;-70
2022/08/25 08:53:56;;;;;;;14.58;3.83;;;;;;;37.89;22.58;100397.55;1856909;77;21987;-71
2022/08/25 08:56:39;;;;;;;12.80;3.62;;;;;;;38.08;21.65;100396.50;1856725;77;21038;-70
2022/08/25 08:59:17;;;;;;;10.03;3.52;;;;;;;38.11;20.48;100401.53;1856782;77;21073;-70
2022/08/25 09:01:48;;;;;;;6.22;3.25;;;;;;;37.92;20.92;100397.11;1856772;77;21040;-70
2022/08/25 09:04:36;;;;;;;7.58;3.33;;;;;;;37.83;21.18;100398.49;1857050;77;21078;-69
2022/08/25 09:07:08;;;;;;;7.65;3.20;;;;;;;37.69;21.15;100393.15;1856546;77;21106;-70
2022/08/25 09:09:34;;;;;;;14.03;3.35;;;;;;;37.75;21.59;100394.95;1856239;77;21113;-70
2022/08/25 09:12:10;;;;;;;11.22;3.08;;;;;;;37.87;21.45;100386.81;1856256;77;21070;-69
2022/08/25 09:18:29;;;;;;;11.90;2.95;;;;;;;38.29;20.85;100386.08;1856506;77;21034;-68
2022/08/25 09:21:35;;;;;;;9.33;3.10;;;;;;;38.46;20.36;100383.49;1850294;77;21296;-70
2022/08/25 09:24:31;;;;;;;6.17;3.22;;;;;;;38.45;20.77;100381.28;1856251;77;21035;-69
2022/08/25 09:27:21;;;;;;;5.42;2.75;;;;;;;38.41;20.17;100380.07;1852973;77;20972;-70
2022/08/25 09:29:59;;;;;;;7.92;3.05;;;;;;;38.30;20.61;100376.73;1856024;77;21022;-69
2022/08/25 09:32:30;;;;;;;14.07;4.00;;;;;;;38.31;20.26;100372.94;1855801;77;21100;-71
2022/08/25 09:34:56;;;;;;;9.25;3.22;;;;;;;38.29;20.11;100377.28;1825229;77;25753;-70
2022/08/25 09:37:23;;;;;;;16.37;3.40;;;;;;;38.13;19.72;100374.65;1855504;77;21030;-69
2022/08/25 09:39:50;;;;;;;13.78;2.80;;;;;;;37.99;19.77;100374.50;1856121;77;21294;-71
2022/08/25 09:42:19;;;;;;;11.28;2.67;;;;;;;37.99;19.12;100373.95;1855882;77;21026;-70
2022/08/25 09:44:47;;;;;;;10.82;2.83;;;;;;;37.89;18.73;100365.94;1856410;77;21630;-71
2022/08/25 09:47:23;;;;;;;7.65;2.42;;;;;;;37.72;18.33;100370.70;1856143;77;22276;-72
2022/08/25 09:49:59;;;;;;;8.60;2.75;;;;;;;37.59;17.32;100362.61;1856632;77;21030;-70
2022/08/25 09:52:32;;;;;;;4.17;2.12;;;;;;;37.49;17.60;100367.77;1856113;77;21050;-70
2022/08/25 09:55:06;;;;;;;8.63;2.12;;;;;;;37.19;18.04;100360.27;1856512;77;21530;-71
2022/08/25 09:57:55;;;;;;;7.22;2.15;;;;;;;37.20;18.41;100346.83;1849757;77;21042;-72
2022/08/25 10:00:32;;;;;;;9.78;2.37;;;;;;;37.35;17.72;100356.09;1856343;77;21119;-70
2022/08/25 10:03:20;;;;;;;5.03;1.92;;;;;;;37.21;17.81;100349.91;1853993;77;21085;-70
2022/08/25 10:06:10;;;;;;;8.90;2.30;;;;;;;37.27;17.57;100358.61;1856193;77;21042;-72
2022/08/25 10:08:48;;;;;;;7.97;2.37;;;;;;;37.00;17.79;100344.81;1856475;77;21015;-70
2022/08/25 10:11:36;;;;;;;9.90;2.70;;;;;;;37.10;18.22;100349.27;1856484;77;21022;-72
2022/08/25 10:14:17;;;;;;;9.98;2.42;;;;;;;37.31;17.68;100344.70;1856242;77;21229;-70
2022/08/25 10:16:45;;;;;;;13.13;3.00;;;;;;;37.15;17.45;100331.58;1856391;77;21042;-70
2022/08/25 10:19:19;;;;;;;13.38;2.75;;;;;;;37.05;17.25;100325.75;1855948;77;21039;-69
2022/08/25 10:22:08;;;;;;;5.33;2.65;;;;;;;37.16;17.72;100325.04;1855676;77;21085;-69
2022/08/25 10:24:36;;;;;;;11.78;2.92;;;;;;;37.29;17.84;100319.38;1826624;77;21046;-69
2022/08/25 10:27:09;;;;;;;10.58;2.33;;;;;;;37.33;17.68;100317.86;1856209;77;21295;-70
2022/08/25 10:30:11;;;;;;;9.93;2.50;;;;;;;37.43;16.89;100324.73;1853966;77;21148;-69
2022/08/25 10:33:09;;;;;;;8.20;2.30;;;;;;;37.36;17.23;100324.80;1817849;77;21096;-71
2022/08/25 10:36:00;;;;;;;4.55;2.08;;;;;;;37.25;17.65;100316.81;1856008;77;21105;-70
2022/08/25 10:38:47;;;;;;;8.55;2.10;;;;;;;37.21;16.73;100311.46;1856091;77;21010;-70
2022/08/25 10:41:53;;;;;;;3.60;2.00;;;;;;;37.45;17.23;100320.68;1856205;77;21086;-70
2022/08/25 10:47:40;;;;;;;7.78;2.50;;;;;;;37.31;16.78;100307.64;1856233;77;21401;-70
2022/08/25 10:50:18;;;;;;;14.45;2.80;;;;;;;37.46;16.89;100316.05;1856241;77;21041;-70
2022/08/25 10:53:24;;;;;;;20.45;3.17;;;;;;;37.18;16.52;100327.53;1855782;77;21085;-69
2022/08/25 10:56:14;;;;;;;6.97;2.60;;;;;;;36.73;17.66;100317.59;1822768;78;21145;-70
2022/08/25 10:59:14;;;;;;;16.95;3.08;;;;;;;36.82;18.88;100314.87;1822373;78;21042;-69
2022/08/25 11:01:52;;;;;;;11.05;3.33;;;;;;;37.28;18.98;100308.64;1822709;78;21031;-70
2022/08/25 11:04:38;;;;;;;10.35;3.08;;;;;;;37.83;17.61;100307.80;1819135;78;20987;-71
2022/08/25 11:07:12;;;;;;;9.73;3.25;;;;;;;37.95;17.33;100292.19;1822881;78;21653;-70
2022/08/25 11:09:43;;;;;;;16.15;2.58;;;;;;;37.96;17.56;100296.59;1823460;78;21528;-71
2022/08/25 11:12:13;;;;;;;12.37;3.60;;;;;;;37.64;17.37;100285.84;1826035;78;21492;-70
2022/08/25 11:14:51;;;;;;;10.05;3.42;;;;;;;37.52;18.58;100301.37;1825704;78;21135;-70
2022/08/25 11:17:26;;;;;;;11.73;3.50;;;;;;;37.50;18.03;100298.02;1823148;78;21050;-70
2022/08/25 11:19:58;;;;;;;10.93;3.25;;;;;;;37.44;18.42;100287.97;1825823;78;21018;-70
2022/08/25 11:22:41;;;;;;;8.28;3.45;;;;;;;37.18;18.26;100298.70;1826093;78;21092;-70
2022/08/25 11:25:36;;;;;;;13.05;5.28;;;;;;;36.92;18.51;100296.52;1825777;78;21551;-70
2022/08/25 11:28:14;;;;;;;11.12;3.40;;;;;;;36.70;19.27;100280.48;1857278;77;21085;-70
2022/08/25 11:30:41;;;;;;;6.75;2.95;;;;;;;36.75;19.05;100283.92;1859456;77;20983;-71
2022/08/25 11:33:14;;;;;;;12.03;3.25;;;;;;;36.56;19.31;100287.12;1859852;77;21084;-70
2022/08/25 11:35:53;;;;;;;5.03;2.75;;;;;;;36.15;19.36;100282.16;1859413;77;21123;-71
2022/08/25 11:38:40;;;;;;;12.63;3.77;;;;;;;35.73;20.04;100293.54;1860022;77;22054;-70
2022/08/25 11:41:38;;;;;;;13.30;2.83;;;;;;;35.23;20.18;100287.26;1859327;77;21526;-70
2022/08/25 11:44:37;;;;;;;10.32;3.58;;;;;;;34.82;20.78;100289.72;1859714;77;21538;-71
2022/08/25 11:47:36;;;;;;;12.70;4.20;;;;;;;34.35;21.63;100290.73;1859426;77;22233;-70
2022/08/25 11:50:07;;;;;;;17.27;5.37;;;;;;;34.22;22.13;100294.30;1859374;77;22137;-70
2022/08/25 11:52:45;;;;;;;13.85;3.47;;;;;;;34.01;22.00;100292.02;1859756;77;21214;-70